Time;durP1;ratioP1;P1;durP2;ratioP2;P2;SDS_P1;SDS_P2;PMS_P1;PMS_P2;Temp;Humidity;BMP_temperature;BMP_pressure;BME280_temperature;BME280_humidity;BME280_pressure;Samples;Min_cycle;Max_cycle;Signal;HPM_P1;HPM_P2
2022/07/12 00:01:50;;;;;;;76.83;22.10;;;18.10;99.90;;;;;;5059270;28;20647;-84
2022/07/12 00:04:16;;;;;;;75.00;17.37;;;18.10;99.90;;;;;;5058909;28;20218;-84
2022/07/12 00:06:42;;;;;;;73.30;12.93;;;18.10;99.90;;;;;;5059098;28;20410;-84
2022/07/12 00:09:07;;;;;;;73.60;15.47;;;18.10;99.90;;;;;;5076700;28;20164;-84
2022/07/12 00:11:35;;;;;;;76.07;14.60;;;18.10;99.90;;;;;;5076759;28;20168;-84
2022/07/12 00:14:01;;;;;;;75.40;13.40;;;18.10;99.90;;;;;;5076912;28;20213;-84
2022/07/12 00:16:26;;;;;;;75.30;14.10;;;18.00;99.90;;;;;;5076884;28;20410;-84
2022/07/12 00:18:53;;;;;;;74.80;13.83;;;18.00;99.90;;;;;;5076758;28;20430;-84
2022/07/12 00:21:18;;;;;;;75.27;13.93;;;17.90;99.90;;;;;;5076812;28;20241;-84
2022/07/12 00:23:44;;;;;;;76.80;12.63;;;17.90;99.90;;;;;;5058607;28;20469;-84
2022/07/12 00:26:10;;;;;;;73.60;12.43;;;17.90;99.90;;;;;;5076829;28;20231;-84
2022/07/12 00:28:35;;;;;;;72.40;11.37;;;17.90;99.90;;;;;;5076632;28;20211;-84
2022/07/12 00:31:01;;;;;;;73.10;13.30;;;17.80;99.90;;;;;;5076133;28;20167;-84
2022/07/12 00:33:27;;;;;;;73.67;12.87;;;17.70;99.90;;;;;;5058470;28;20512;-84
2022/07/12 00:35:53;;;;;;;73.37;13.43;;;17.70;99.90;;;;;;5076410;28;20669;-84
2022/07/12 00:38:19;;;;;;;71.97;10.73;;;17.70;99.90;;;;;;5076096;28;20453;-84
2022/07/12 00:40:44;;;;;;;71.70;11.03;;;17.70;99.90;;;;;;5076629;28;20192;-84
2022/07/12 00:43:10;;;;;;;73.40;13.20;;;17.70;99.90;;;;;;5076321;28;20180;-84
2022/07/12 00:45:35;;;;;;;74.57;12.80;;;17.60;99.90;;;;;;5076887;28;20634;-84
2022/07/12 00:48:02;;;;;;;72.30;11.30;;;17.60;99.90;;;;;;5058115;28;20214;-85
2022/07/12 00:50:27;;;;;;;73.27;12.77;;;17.50;99.90;;;;;;5076140;28;20225;-84
2022/07/12 00:52:55;;;;;;;72.47;11.97;;;17.50;99.90;;;;;;5076221;28;20406;-84
2022/07/12 00:55:22;;;;;;;71.27;12.10;;;17.50;99.90;;;;;;5076088;28;20160;-84
2022/07/12 00:57:48;;;;;;;73.50;12.40;;;17.50;99.90;;;;;;5075549;28;20418;-85
2022/07/12 01:00:21;;;;;;;72.77;12.20;;;17.50;99.90;;;;;;5075725;28;20449;-84
2022/07/12 01:02:47;;;;;;;73.27;13.30;;;17.50;99.90;;;;;;5076076;28;20406;-84
2022/07/12 01:05:13;;;;;;;73.70;12.27;;;17.50;99.90;;;;;;5057872;28;20459;-84
2022/07/12 01:07:39;;;;;;;72.90;12.23;;;17.50;99.90;;;;;;5057939;28;20430;-84
2022/07/12 01:10:07;;;;;;;74.37;13.93;;;17.40;99.90;;;;;;5075756;28;20397;-84
2022/07/12 01:12:33;;;;;;;72.90;17.20;;;17.40;99.90;;;;;;5075993;28;20509;-84
2022/07/12 01:14:59;;;;;;;72.97;15.60;;;17.30;99.90;;;;;;5057990;28;20417;-85
2022/07/12 01:17:26;;;;;;;73.10;13.60;;;17.20;99.90;;;;;;5075861;28;20759;-84
2022/07/12 01:19:54;;;;;;;73.50;13.67;;;17.30;99.90;;;;;;5075968;28;20463;-85
2022/07/12 01:22:24;;;;;;;73.57;12.60;;;17.30;99.90;;;;;;5076153;28;20397;-85
2022/07/12 01:24:50;;;;;;;73.77;13.63;;;17.20;99.90;;;;;;5075335;28;20545;-84
2022/07/12 01:27:16;;;;;;;72.43;13.10;;;17.20;99.90;;;;;;5057344;28;20454;-84
2022/07/12 01:29:42;;;;;;;73.40;14.20;;;17.20;99.90;;;;;;5075201;28;20162;-84
2022/07/12 01:32:24;;;;;;;73.60;14.07;;;17.20;99.90;;;;;;5075764;28;20482;-84
2022/07/12 01:34:55;;;;;;;76.27;14.67;;;17.10;99.90;;;;;;5075286;28;20418;-84
2022/07/12 01:37:22;;;;;;;74.67;15.20;;;17.10;99.90;;;;;;5075399;28;20422;-84
2022/07/12 01:39:53;;;;;;;73.40;14.50;;;17.10;99.90;;;;;;5075245;28;20447;-84
2022/07/12 01:42:20;;;;;;;72.53;12.97;;;17.10;99.90;;;;;;5075258;28;20394;-84
2022/07/12 01:44:45;;;;;;;71.87;12.67;;;17.00;99.90;;;;;;5074637;28;20438;-85
2022/07/12 01:47:12;;;;;;;74.43;14.93;;;17.00;99.90;;;;;;5074915;28;20425;-84
2022/07/12 01:49:38;;;;;;;75.10;17.63;;;17.00;99.90;;;;;;5056755;28;20402;-84
2022/07/12 01:52:04;;;;;;;76.07;19.10;;;17.00;99.90;;;;;;5074742;28;20482;-85
2022/07/12 01:54:30;;;;;;;74.90;18.07;;;17.00;99.90;;;;;;5056737;28;21015;-84
2022/07/12 01:56:56;;;;;;;72.20;16.10;;;16.90;99.90;;;;;;5075148;28;20485;-85
2022/07/12 01:59:22;;;;;;;76.17;16.13;;;16.90;99.90;;;;;;5074766;28;20426;-85
2022/07/12 02:01:48;;;;;;;79.50;21.57;;;16.90;99.90;;;;;;5074728;28;20167;-84
2022/07/12 02:04:18;;;;;;;74.90;18.20;;;16.80;99.90;;;;;;5074588;28;20488;-85
2022/07/12 02:06:45;;;;;;;75.33;18.10;;;16.80;99.90;;;;;;5056672;28;20258;-85
2022/07/12 02:09:14;;;;;;;73.60;15.03;;;16.80;99.90;;;;;;5074251;28;20394;-85
2022/07/12 02:11:41;;;;;;;75.30;16.77;;;16.80;99.90;;;;;;5074188;28;20429;-85
2022/07/12 02:14:08;;;;;;;74.50;15.57;;;16.80;99.90;;;;;;5074696;28;20452;-84
2022/07/12 02:16:33;;;;;;;74.57;16.00;;;16.80;99.90;;;;;;5056327;28;20406;-85
2022/07/12 02:18:59;;;;;;;72.67;14.50;;;16.80;99.90;;;;;;5074027;28;20426;-85
2022/07/12 02:21:25;;;;;;;75.47;15.30;;;16.70;99.90;;;;;;5074383;28;20181;-84
2022/07/12 02:23:51;;;;;;;73.67;16.27;;;16.70;99.90;;;;;;5073995;28;20191;-85
2022/07/12 02:26:17;;;;;;;75.70;18.37;;;16.70;99.90;;;;;;5056630;28;20421;-85
2022/07/12 02:28:43;;;;;;;75.17;20.40;;;16.60;99.90;;;;;;5074909;28;20180;-85
2022/07/12 02:31:09;;;;;;;74.83;20.67;;;16.60;99.90;;;;;;5056529;28;20805;-85
2022/07/12 02:33:35;;;;;;;73.70;18.57;;;16.60;99.90;;;;;;5074569;28;20418;-84
2022/07/12 02:36:02;;;;;;;75.97;17.97;;;16.60;99.90;;;;;;5155946;22;20481;-85
2022/07/12 02:38:28;;;;;;;76.97;20.30;;;16.60;99.90;;;;;;5083497;28;20439;-85
2022/07/12 02:40:54;;;;;;;74.97;16.30;;;16.60;99.90;;;;;;5085534;28;20418;-85
2022/07/12 02:43:27;;;;;;;74.07;18.27;;;16.50;99.90;;;;;;5081912;28;21125;-85
2022/07/12 02:45:56;;;;;;;74.17;17.83;;;16.50;99.90;;;;;;5081885;28;20163;-85
2022/07/12 02:48:22;;;;;;;72.60;16.40;;;16.50;99.90;;;;;;5083047;28;20972;-85
2022/07/12 02:50:48;;;;;;;73.57;14.13;;;16.50;99.90;;;;;;5084282;28;20409;-85
2022/07/12 02:53:14;;;;;;;75.57;19.57;;;16.50;99.90;;;;;;5085916;28;20410;-85
2022/07/12 02:55:40;;;;;;;75.10;18.67;;;16.40;99.90;;;;;;5088198;28;20436;-85
2022/07/12 02:58:06;;;;;;;74.07;16.57;;;16.40;99.90;;;;;;5088184;28;20831;-85
2022/07/12 03:00:32;;;;;;;74.90;17.53;;;16.40;99.90;;;;;;5088136;28;20303;-85
2022/07/12 03:02:58;;;;;;;75.40;19.90;;;16.40;99.90;;;;;;5087294;28;20953;-85
2022/07/12 03:05:24;;;;;;;73.70;19.43;;;16.40;99.90;;;;;;5086562;28;20428;-85
2022/07/12 03:07:50;;;;;;;73.80;22.07;;;16.40;99.90;;;;;;5087100;28;20411;-85
2022/07/12 03:10:16;;;;;;;74.97;24.50;;;16.30;99.90;;;;;;5089787;28;20196;-85
2022/07/12 03:12:42;;;;;;;76.33;29.17;;;16.30;99.90;;;;;;5087683;28;20171;-85
2022/07/12 03:15:07;;;;;;;73.67;21.47;;;16.30;99.90;;;;;;5088561;28;20408;-85
2022/07/12 03:17:34;;;;;;;74.80;26.70;;;16.30;99.90;;;;;;5088153;28;20221;-85
2022/07/12 03:20:00;;;;;;;78.63;36.37;;;16.20;99.90;;;;;;5089259;28;20404;-85
2022/07/12 03:22:26;;;;;;;82.07;46.57;;;16.20;99.90;;;;;;5089262;28;20438;-85
2022/07/12 03:24:52;;;;;;;79.77;41.60;;;16.10;99.90;;;;;;5089320;28;20508;-85
2022/07/12 03:27:18;;;;;;;77.00;33.40;;;16.10;99.90;;;;;;5085781;28;20222;-85
2022/07/12 03:29:44;;;;;;;78.20;36.20;;;16.10;99.90;;;;;;5087327;28;20964;-85
2022/07/12 03:32:10;;;;;;;78.27;36.40;;;16.10;99.90;;;;;;5088030;28;20405;-85
2022/07/12 03:34:36;;;;;;;78.40;29.67;;;16.10;99.90;;;;;;5087922;28;20197;-84
2022/07/12 03:37:03;;;;;;;74.57;27.17;;;16.10;99.90;;;;;;5084478;28;20534;-85
2022/07/12 03:39:29;;;;;;;77.57;37.70;;;16.10;99.90;;;;;;5084614;28;20418;-85
2022/07/12 03:41:55;;;;;;;79.03;36.60;;;16.00;99.90;;;;;;5086298;28;20415;-85
2022/07/12 03:44:20;;;;;;;75.37;22.20;;;16.10;99.90;;;;;;5085590;28;20445;-85
2022/07/12 03:46:47;;;;;;;76.10;26.97;;;16.10;99.90;;;;;;5086942;28;20214;-85
2022/07/12 03:49:13;;;;;;;73.17;21.87;;;16.10;99.90;;;;;;5087218;28;20159;-85
2022/07/12 03:51:42;;;;;;;73.57;21.77;;;16.10;99.90;;;;;;5086160;28;20405;-85
2022/07/12 03:54:08;;;;;;;78.10;30.03;;;16.10;99.90;;;;;;5086239;28;20428;-85
2022/07/12 03:59:22;;;;;;;74.67;25.50;;;16.10;99.90;;;;;;5087962;28;20162;-85
2022/07/12 04:01:47;;;;;;;80.27;35.13;;;16.10;99.90;;;;;;5086983;28;20429;-85
2022/07/12 04:04:13;;;;;;;74.87;25.13;;;16.10;99.90;;;;;;5083946;28;20458;-85
2022/07/12 04:06:39;;;;;;;79.57;40.37;;;16.10;99.90;;;;;;5085012;28;20173;-85
2022/07/12 04:09:08;;;;;;;76.97;29.03;;;16.00;99.90;;;;;;5087104;28;20187;-85
2022/07/12 04:11:33;;;;;;;81.70;38.97;;;16.10;99.90;;;;;;5084677;28;20168;-85
2022/07/12 04:13:59;;;;;;;77.47;33.20;;;16.10;99.90;;;;;;5085271;28;20431;-85
2022/07/12 04:16:26;;;;;;;83.50;52.13;;;16.10;99.90;;;;;;5085028;28;20163;-85
2022/07/12 04:18:51;;;;;;;82.63;44.73;;;16.00;99.90;;;;;;5083807;28;20439;-85
2022/07/12 04:21:18;;;;;;;80.73;41.97;;;16.10;99.90;;;;;;5084608;28;20412;-85
2022/07/12 04:23:43;;;;;;;94.37;74.07;;;16.10;99.90;;;;;;5084790;28;20452;-85
2022/07/12 04:26:09;;;;;;;86.50;60.57;;;16.00;99.90;;;;;;5085151;28;20445;-85
2022/07/12 04:28:35;;;;;;;85.73;57.80;;;16.00;99.90;;;;;;5085958;28;20184;-85
2022/07/12 04:31:02;;;;;;;85.00;48.97;;;16.10;99.90;;;;;;5083256;28;20411;-85
2022/07/12 04:33:28;;;;;;;86.77;59.43;;;16.10;99.90;;;;;;5084086;28;20413;-85
2022/07/12 04:35:53;;;;;;;95.23;77.00;;;16.00;99.90;;;;;;5040176;28;1339926;-85
2022/07/12 04:38:19;;;;;;;88.20;66.07;;;16.10;99.90;;;;;;5087566;28;20216;-85
2022/07/12 04:40:45;;;;;;;93.13;81.07;;;16.10;99.90;;;;;;5085646;28;20182;-85
2022/07/12 04:43:10;;;;;;;100.33;89.73;;;16.10;99.90;;;;;;5084756;28;20178;-85
2022/07/12 04:45:36;;;;;;;95.80;76.77;;;16.20;99.90;;;;;;5084247;28;20413;-85
2022/07/12 04:48:02;;;;;;;85.60;58.30;;;16.50;99.90;;;;;;5084291;28;20195;-85
2022/07/12 04:50:28;;;;;;;75.13;24.87;;;16.90;99.90;;;;;;5085298;28;20621;-85
2022/07/12 04:52:54;;;;;;;72.17;11.17;;;17.30;99.90;;;;;;5087212;28;20397;-85
2022/07/12 04:55:19;;;;;;;70.00;9.47;;;17.60;98.70;;;;;;5085412;28;20179;-85
2022/07/12 04:57:45;;;;;;;70.90;10.17;;;18.00;94.60;;;;;;5086464;28;20195;-85
2022/07/12 05:00:11;;;;;;;71.50;9.53;;;18.30;92.40;;;;;;5087499;28;20168;-85
2022/07/12 05:02:37;;;;;;;71.03;9.47;;;18.50;88.30;;;;;;5087834;28;20217;-85
2022/07/12 05:05:03;;;;;;;73.50;9.23;;;18.70;81.30;;;;;;5086867;28;20457;-86
2022/07/12 05:07:28;;;;;;;72.90;10.67;;;18.90;79.50;;;;;;5086289;28;20270;-84
2022/07/12 05:09:54;;;;;;;72.47;11.20;;;19.00;75.20;;;;;;5082980;28;20898;-85
2022/07/12 05:12:20;;;;;;;72.30;11.10;;;18.90;74.20;;;;;;5083627;28;20172;-85
2022/07/12 05:14:45;;;;;;;73.40;11.40;;;18.70;79.30;;;;;;5084431;28;20534;-86
2022/07/12 05:17:11;;;;;;;70.17;10.30;;;18.50;88.40;;;;;;5084784;28;20186;-85
2022/07/12 05:19:37;;;;;;;71.33;12.67;;;18.30;91.60;;;;;;5083661;28;20218;-85
2022/07/12 05:22:04;;;;;;;75.07;15.00;;;18.10;95.10;;;;;;5084017;28;20171;-85
2022/07/12 05:24:30;;;;;;;77.17;25.83;;;18.00;98.00;;;;;;5087088;28;20486;-86
2022/07/12 05:26:56;;;;;;;80.60;33.70;;;17.70;99.90;;;;;;5086160;28;20378;-86
2022/07/12 05:29:22;;;;;;;83.57;44.20;;;17.60;99.90;;;;;;5084152;28;20168;-85
2022/07/12 05:31:47;;;;;;;87.47;55.50;;;17.60;99.90;;;;;;5083298;28;20432;-85
2022/07/12 05:34:13;;;;;;;88.17;50.77;;;17.40;99.90;;;;;;5081407;28;20183;-85
2022/07/12 05:36:39;;;;;;;86.20;52.47;;;17.40;99.90;;;;;;5083894;28;20156;-85
2022/07/12 05:39:05;;;;;;;88.43;51.80;;;17.40;99.90;;;;;;5084467;28;20183;-86
2022/07/12 05:41:31;;;;;;;87.53;45.50;;;17.40;99.90;;;;;;5083645;28;20398;-85
2022/07/12 05:43:56;;;;;;;85.80;51.33;;;17.20;99.90;;;;;;5082954;28;20476;-85
2022/07/12 05:46:22;;;;;;;84.87;45.13;;;17.30;99.90;;;;;;5081784;28;20429;-86
2022/07/12 05:48:48;;;;;;;89.27;49.13;;;17.20;99.90;;;;;;5083131;28;20179;-85
2022/07/12 05:53:58;;;;;;;91.53;55.90;;;17.20;99.90;;;;;;5083448;28;20159;-86
2022/07/12 05:56:24;;;;;;;93.23;65.70;;;17.20;99.90;;;;;;5083342;28;20414;-85
2022/07/12 05:58:50;;;;;;;111.70;99.37;;;17.20;99.90;;;;;;5083813;28;20180;-86
2022/07/12 06:01:16;;;;;;;106.97;95.47;;;17.20;99.90;;;;;;5083687;28;20497;-86
2022/07/12 06:03:43;;;;;;;143.00;130.00;;;17.30;99.90;;;;;;5083741;28;20460;-86
2022/07/12 06:06:09;;;;;;;150.37;137.07;;;17.30;99.90;;;;;;5082445;28;20405;-86
2022/07/12 06:08:35;;;;;;;139.17;126.60;;;17.30;99.90;;;;;;5082631;28;20430;-86
2022/07/12 06:11:00;;;;;;;159.17;145.70;;;17.30;99.90;;;;;;5081817;28;20167;-85
2022/07/12 06:13:26;;;;;;;164.50;150.83;;;17.40;99.90;;;;;;5083635;28;20402;-84
2022/07/12 06:15:52;;;;;;;161.13;147.50;;;17.40;99.90;;;;;;5082627;28;20167;-83
2022/07/12 06:18:17;;;;;;;180.00;165.43;;;17.40;99.90;;;;;;5082143;28;20191;-83
2022/07/12 06:20:43;;;;;;;154.13;140.90;;;17.50;99.90;;;;;;5080654;28;20293;-83
2022/07/12 06:23:09;;;;;;;136.87;124.47;;;17.50;99.90;;;;;;5081474;28;20174;-83
2022/07/12 06:25:35;;;;;;;158.80;145.40;;;17.60;99.90;;;;;;5081540;28;20160;-84
2022/07/12 06:28:04;;;;;;;175.93;161.73;;;17.60;99.90;;;;;;5081976;28;20525;-83
2022/07/12 06:30:30;;;;;;;168.20;154.70;;;17.70;99.90;;;;;;5079711;28;20402;-83
2022/07/12 06:32:56;;;;;;;156.30;142.93;;;17.80;99.90;;;;;;5084014;28;20397;-84
2022/07/12 06:35:22;;;;;;;176.90;163.10;;;17.80;99.90;;;;;;5083238;28;20184;-83
2022/07/12 06:37:47;;;;;;;164.23;150.53;;;17.80;99.90;;;;;;5082387;28;20183;-84
2022/07/12 06:40:16;;;;;;;163.73;150.17;;;17.80;99.90;;;;;;5081265;28;20172;-83
2022/07/12 06:42:43;;;;;;;164.70;151.07;;;17.90;99.90;;;;;;5079147;28;20160;-83
2022/07/12 06:45:09;;;;;;;144.07;130.87;;;17.90;99.90;;;;;;5082393;28;20473;-83
2022/07/12 06:47:35;;;;;;;143.87;130.27;;;18.10;99.90;;;;;;5082856;28;20425;-83
2022/07/12 06:50:02;;;;;;;161.87;148.67;;;18.20;99.90;;;;;;5081785;28;20417;-84
2022/07/12 06:52:28;;;;;;;152.77;139.67;;;18.30;99.90;;;;;;5081040;28;20477;-83
2022/07/12 06:54:53;;;;;;;147.67;134.43;;;18.40;99.90;;;;;;5080894;28;20507;-83
2022/07/12 06:57:19;;;;;;;161.47;147.37;;;18.40;99.90;;;;;;5078229;28;20184;-82
2022/07/12 06:59:45;;;;;;;132.73;120.20;;;18.40;99.90;;;;;;5078953;28;20183;-83
2022/07/12 07:02:11;;;;;;;134.30;121.30;;;18.50;99.90;;;;;;5079515;28;20518;-82
2022/07/12 07:04:36;;;;;;;133.83;120.97;;;18.60;99.90;;;;;;5079136;28;20275;-82
2022/07/12 07:07:02;;;;;;;99.73;78.83;;;18.60;99.90;;;;;;5080114;28;20307;-83
2022/07/12 07:09:28;;;;;;;118.77;106.67;;;18.70;99.90;;;;;;5081697;28;20164;-83
2022/07/12 07:11:53;;;;;;;114.83;102.93;;;18.80;99.90;;;;;;5080597;28;20523;-83
2022/07/12 07:14:19;;;;;;;110.83;98.60;;;18.80;99.90;;;;;;5080000;28;20178;-83
2022/07/12 07:16:45;;;;;;;106.50;94.90;;;19.00;99.90;;;;;;5079971;28;20159;-83
2022/07/12 07:19:10;;;;;;;116.20;103.67;;;19.00;99.90;;;;;;5082688;28;20188;-83
2022/07/12 07:21:36;;;;;;;101.63;84.13;;;19.00;99.90;;;;;;5081594;28;20199;-83
2022/07/12 07:24:03;;;;;;;104.60;91.07;;;19.10;99.90;;;;;;5080448;28;20286;-83
2022/07/12 07:26:29;;;;;;;105.23;85.33;;;19.10;99.90;;;;;;5083775;28;20424;-83
2022/07/12 07:31:40;;;;;;;103.07;85.73;;;19.40;99.90;;;;;;5080617;28;20382;-82
2022/07/12 07:34:05;;;;;;;104.10;90.40;;;19.40;99.90;;;;;;5082147;28;20896;-83
2022/07/12 07:36:34;;;;;;;95.50;47.40;;;19.50;99.90;;;;;;5083452;28;20856;-84
2022/07/12 07:39:00;;;;;;;87.83;50.30;;;19.50;99.90;;;;;;5082965;28;20195;-83
2022/07/12 07:41:26;;;;;;;92.43;59.20;;;19.60;99.90;;;;;;5084782;28;20430;-83
2022/07/12 07:43:52;;;;;;;94.50;60.93;;;19.70;99.90;;;;;;5085940;28;20446;-83
2022/07/12 07:46:17;;;;;;;94.17;73.17;;;19.70;99.90;;;;;;5087941;28;20168;-83
2022/07/12 07:48:43;;;;;;;85.97;41.07;;;19.80;99.90;;;;;;5087960;28;20185;-82
2022/07/12 07:51:09;;;;;;;92.90;54.03;;;19.80;99.90;;;;;;5086555;28;20213;-83
2022/07/12 07:53:34;;;;;;;81.17;41.30;;;19.90;99.90;;;;;;5087089;28;20171;-82
2022/07/12 07:56:00;;;;;;;83.27;42.13;;;20.00;99.90;;;;;;5089457;28;20203;-83
2022/07/12 07:58:26;;;;;;;80.97;33.30;;;20.10;99.90;;;;;;5087960;28;20195;-82
2022/07/12 08:00:53;;;;;;;81.63;25.30;;;20.10;99.90;;;;;;5087436;28;20496;-83
2022/07/12 08:03:21;;;;;;;87.07;49.27;;;20.20;99.90;;;;;;5087544;28;20451;-83
2022/07/12 08:05:48;;;;;;;88.73;47.93;;;20.30;99.90;;;;;;5087718;28;20395;-83
2022/07/12 08:08:13;;;;;;;75.80;21.47;;;20.40;99.90;;;;;;5086736;28;20469;-83
2022/07/12 08:10:39;;;;;;;78.30;24.40;;;20.50;99.90;;;;;;5085773;28;20438;-83
2022/07/12 08:13:06;;;;;;;76.37;16.87;;;20.50;99.90;;;;;;5087439;28;20191;-83
2022/07/12 08:15:32;;;;;;;78.07;16.67;;;20.50;99.90;;;;;;5086825;28;20444;-83
2022/07/12 08:17:57;;;;;;;78.83;20.17;;;20.50;99.90;;;;;;5086901;28;20443;-83
2022/07/12 08:20:24;;;;;;;76.10;17.70;;;20.60;99.90;;;;;;5086515;28;20439;-83
2022/07/12 08:22:50;;;;;;;80.47;20.43;;;20.70;99.90;;;;;;5085976;28;20180;-83
2022/07/12 08:25:16;;;;;;;80.70;22.10;;;20.70;99.90;;;;;;5087441;28;20460;-83
2022/07/12 08:27:42;;;;;;;81.07;17.37;;;20.70;99.90;;;;;;5084771;28;20934;-83
2022/07/12 08:30:10;;;;;;;78.50;15.73;;;20.70;99.90;;;;;;5090332;28;20417;-83
2022/07/12 08:32:36;;;;;;;77.27;14.90;;;20.70;99.90;;;;;;5090349;28;20917;-83
2022/07/12 08:35:02;;;;;;;75.83;15.23;;;20.70;99.90;;;;;;5096650;22;20499;-83
2022/07/12 08:37:28;;;;;;;77.10;15.90;;;20.80;99.90;;;;;;5076287;28;20564;-83
2022/07/12 08:39:53;;;;;;;75.30;13.33;;;20.90;99.90;;;;;;5074683;28;20403;-83
2022/07/12 08:42:19;;;;;;;84.00;18.23;;;21.00;99.90;;;;;;5075265;28;20624;-83
2022/07/12 08:44:55;;;;;;;77.07;12.83;;;21.00;99.90;;;;;;5075822;28;20203;-84
2022/07/12 08:47:22;;;;;;;74.20;12.40;;;21.10;99.90;;;;;;5073787;28;20698;-84
2022/07/12 08:50:14;;;;;;;75.60;12.20;;;21.20;99.90;;;;;;5073710;28;20409;-85
2022/07/12 08:52:42;;;;;;;75.57;13.10;;;21.20;99.90;;;;;;5073690;28;20502;-84
2022/07/12 08:55:25;;;;;;;77.27;14.47;;;21.30;97.90;;;;;;5075408;28;20484;-85
2022/07/12 08:57:55;;;;;;;78.20;14.63;;;21.40;97.80;;;;;;5074777;28;20456;-84
2022/07/12 09:00:22;;;;;;;74.30;11.77;;;21.50;99.80;;;;;;5074918;28;20433;-84
2022/07/12 09:03:07;;;;;;;72.40;10.97;;;21.70;87.00;;;;;;5073478;28;20417;-84
2022/07/12 09:05:34;;;;;;;71.70;11.23;;;21.80;92.00;;;;;;5073385;28;20450;-85
2022/07/12 09:08:07;;;;;;;82.90;12.37;;;21.80;85.40;;;;;;5074658;28;20452;-84
2022/07/12 09:10:55;;;;;;;73.80;12.53;;;21.90;72.00;;;;;;5074993;28;20474;-84
2022/07/12 09:13:41;;;;;;;75.50;13.10;;;21.90;77.80;;;;;;5074587;28;20919;-84
2022/07/12 09:16:18;;;;;;;74.17;13.53;;;21.90;84.60;;;;;;5074695;28;20398;-84
2022/07/12 09:18:48;;;;;;;76.40;13.00;;;22.10;78.50;;;;;;5073977;28;20456;-84
2022/07/12 09:21:27;;;;;;;74.30;13.57;;;22.20;80.50;;;;;;5074047;28;20390;-85
2022/07/12 09:23:57;;;;;;;75.30;11.93;;;22.30;74.30;;;;;;5073438;28;20442;-84
2022/07/12 09:26:24;;;;;;;74.77;11.50;;;22.40;75.30;;;;;;5074132;28;20551;-84
2022/07/12 09:28:51;;;;;;;73.67;11.40;;;22.40;71.60;;;;;;5074025;28;20422;-85
2022/07/12 09:31:17;;;;;;;73.43;11.37;;;22.50;53.30;;;;;;5074325;28;20440;-85
2022/07/12 09:36:55;;;;;;;72.07;10.00;;;22.70;69.60;;;;;;5074443;28;20418;-86
2022/07/12 09:39:25;;;;;;;71.93;9.87;;;22.90;56.60;;;;;;5074209;28;20904;-85
2022/07/12 09:41:54;;;;;;;75.10;9.00;;;23.00;43.50;;;;;;5073087;28;20795;-85
2022/07/12 09:44:20;;;;;;;72.50;8.30;;;23.10;35.50;;;;;;5074564;28;20452;-86
2022/07/12 09:46:48;;;;;;;71.80;8.63;;;23.20;45.20;;;;;;5073023;28;20415;-85
2022/07/12 09:49:13;;;;;;;72.90;7.90;;;23.30;42.50;;;;;;5074091;28;20409;-85
2022/07/12 09:51:44;;;;;;;72.20;8.07;;;23.40;35.60;;;;;;5074072;28;20751;-85
2022/07/12 09:54:13;;;;;;;70.60;6.93;;;23.40;28.70;;;;;;5072679;28;20160;-85
2022/07/12 09:56:43;;;;;;;73.03;10.50;;;23.50;24.60;;;;;;5072609;28;20406;-85
2022/07/12 09:59:13;;;;;;;71.17;6.60;;;23.60;33.50;;;;;;5073986;28;20371;-86
2022/07/12 10:01:39;;;;;;;71.67;6.80;;;23.70;9.10;;;;;;5072320;28;20406;-86
2022/07/12 10:04:06;;;;;;;70.20;6.47;;;24.00;20.70;;;;;;5072691;28;20446;-86
2022/07/12 10:06:32;;;;;;;70.93;6.57;;;24.00;15.00;;;;;;5075213;28;20398;-86
2022/07/12 10:08:57;;;;;;;69.37;5.47;;;24.20;15.20;;;;;;5074133;28;20440;-86
2022/07/12 10:11:24;;;;;;;70.93;6.70;;;24.40;8.20;;;;;;5072207;28;20164;-86
2022/07/12 10:13:51;;;;;;;68.97;5.83;;;24.60;1.00;;;;;;5072138;28;20160;-86
2022/07/12 10:16:28;;;;;;;69.80;5.47;;;24.70;1.00;;;;;;5073399;28;20838;-85
2022/07/12 10:19:25;;;;;;;71.57;6.33;;;24.90;1.00;;;;;;5073376;28;20902;-85
2022/07/12 10:21:56;;;;;;;71.33;5.20;;;25.20;13.20;;;;;;5073374;28;20387;-85
2022/07/12 10:24:31;;;;;;;70.00;5.93;;;25.40;7.50;;;;;;5071894;28;20477;-85
2022/07/12 10:27:13;;;;;;;68.70;5.20;;;25.40;1.00;;;;;;5073239;28;20764;-85
2022/07/12 10:29:45;;;;;;;68.73;4.90;;;25.50;1.00;;;;;;5073579;28;20383;-85
2022/07/12 10:32:25;;;;;;;69.40;4.80;;;25.30;1.00;;;;;;5071992;28;20475;-85
2022/07/12 10:35:06;;;;;;;67.87;4.70;;;25.50;1.00;;;;;;5071705;28;20425;-85
2022/07/12 10:37:33;;;;;;;69.47;4.97;;;25.60;1.00;;;;;;5072925;28;20434;-85
2022/07/12 10:40:18;;;;;;;69.57;4.50;;;25.60;1.00;;;;;;5073113;28;20411;-85
2022/07/12 10:43:05;;;;;;;69.17;4.50;;;25.90;1.00;;;;;;5071791;28;20499;-85
2022/07/12 10:45:48;;;;;;;67.90;4.00;;;26.00;1.00;;;;;;5071849;28;20506;-84
2022/07/12 10:48:14;;;;;;;68.77;4.03;;;26.10;1.00;;;;;;5073436;28;20782;-84
2022/07/12 10:50:45;;;;;;;67.47;3.40;;;26.20;1.00;;;;;;5072047;28;20406;-84
2022/07/12 10:53:40;;;;;;;67.87;3.67;;;26.30;1.00;;;;;;5071743;28;20163;-85
2022/07/12 10:56:18;;;;;;;67.73;3.90;;;26.30;1.00;;;;;;5073169;28;20375;-85
2022/07/12 10:58:44;;;;;;;67.70;3.07;;;26.70;1.00;;;;;;5071578;28;20423;-86
2022/07/12 11:01:18;;;;;;;68.50;4.23;;;26.90;1.00;;;;;;5071662;28;20405;-85
2022/07/12 11:03:51;;;;;;;67.63;3.60;;;27.00;1.00;;;;;;5071561;28;20188;-85
2022/07/12 11:06:25;;;;;;;68.47;3.10;;;27.30;1.00;;;;;;5071950;28;20414;-85
2022/07/12 11:09:03;;;;;;;68.43;3.40;;;27.70;1.00;;;;;;5071519;28;20501;-85
2022/07/12 11:11:44;;;;;;;67.77;3.60;;;28.10;1.00;;;;;;5071547;28;20563;-85
2022/07/12 11:14:11;;;;;;;68.10;4.17;;;28.00;1.00;;;;;;5071483;28;20398;-86
2022/07/12 11:16:47;;;;;;;67.53;2.90;;;28.20;1.00;;;;;;5075530;28;20398;-85
2022/07/12 11:19:14;;;;;;;68.20;4.53;;;28.40;1.00;;;;;;5076565;28;20378;-85
2022/07/12 11:21:46;;;;;;;68.37;5.40;;;28.40;1.00;;;;;;5076561;28;20402;-86
2022/07/12 11:24:19;;;;;;;67.37;3.90;;;28.50;1.00;;;;;;5076490;28;20525;-87
2022/07/12 11:26:46;;;;;;;68.03;4.50;;;28.60;1.00;;;;;;5076589;28;20397;-87
2022/07/12 11:29:15;;;;;;;67.97;5.37;;;28.60;1.00;;;;;;5077036;28;20452;-86
2022/07/12 11:31:41;;;;;;;68.50;4.33;;;28.60;1.00;;;;;;5076361;28;20410;-86
2022/07/12 11:34:07;;;;;;;68.20;3.90;;;28.80;1.00;;;;;;5075249;28;20410;-86
2022/07/12 11:36:33;;;;;;;67.77;3.47;;;28.80;1.00;;;;;;5075516;28;20656;-87
2022/07/12 11:39:00;;;;;;;66.83;2.93;;;28.80;1.00;;;;;;5076385;28;20689;-86
2022/07/12 11:41:26;;;;;;;67.50;3.90;;;28.90;1.00;;;;;;5077388;28;20405;-86
2022/07/12 11:43:51;;;;;;;67.57;3.23;;;28.80;1.00;;;;;;5077364;28;20460;-85
2022/07/12 11:46:17;;;;;;;67.63;3.10;;;29.00;1.00;;;;;;5076993;28;20410;-86
2022/07/12 11:48:43;;;;;;;67.67;3.10;;;29.20;1.00;;;;;;5076321;28;20255;-85
2022/07/12 11:51:13;;;;;;;67.20;3.20;;;29.10;1.00;;;;;;5077217;28;20631;-86
2022/07/12 11:53:40;;;;;;;67.60;2.90;;;29.10;1.00;;;;;;5076973;28;20402;-86
2022/07/12 11:56:07;;;;;;;69.00;2.87;;;29.10;1.00;;;;;;5075029;28;20944;-86
2022/07/12 11:58:37;;;;;;;68.50;3.50;;;29.20;1.00;;;;;;5074473;28;20430;-85
2022/07/12 12:01:03;;;;;;;70.20;3.40;;;29.20;1.00;;;;;;5076101;28;20455;-85
2022/07/12 12:03:29;;;;;;;66.77;2.70;;;29.40;1.00;;;;;;5074681;28;20483;-86
2022/07/12 12:05:56;;;;;;;68.00;3.17;;;29.20;1.00;;;;;;5075917;28;20761;-85
2022/07/12 12:08:23;;;;;;;67.17;3.10;;;29.40;1.00;;;;;;5074506;28;20180;-85
2022/07/12 12:10:59;;;;;;;67.90;2.73;;;29.10;1.00;;;;;;5074399;28;20982;-85
2022/07/12 12:13:29;;;;;;;67.37;2.80;;;29.40;1.00;;;;;;5076210;28;20386;-85
2022/07/12 12:16:00;;;;;;;67.30;3.07;;;29.40;1.00;;;;;;5075711;28;20391;-85
2022/07/12 12:18:32;;;;;;;71.67;3.10;;;29.70;1.00;;;;;;5074363;28;20483;-85
2022/07/12 12:21:03;;;;;;;67.30;3.43;;;29.80;1.00;;;;;;5075618;28;20830;-85
2022/07/12 12:25:12;;;;;;;;;;;;;;;;;;;;;
2022/07/12 12:34:09;;;;;;;67.00;3.30;;;30.50;1.00;;;;;;5075166;28;20843;-85
2022/07/12 12:36:38;;;;;;;69.53;3.73;;;29.80;1.00;;;;;;5074599;28;20426;-86
2022/07/12 12:39:05;;;;;;;70.50;4.00;;;29.30;1.00;;;;;;5075080;28;20411;-85
2022/07/12 12:41:41;;;;;;;67.27;3.30;;;28.90;1.00;;;;;;5075122;28;20409;-85
2022/07/12 12:44:17;;;;;;;67.20;3.60;;;29.10;1.00;;;;;;5073723;28;20441;-85
2022/07/12 12:46:53;;;;;;;68.23;3.10;;;29.20;1.00;;;;;;5075209;28;20409;-85
2022/07/12 12:49:49;;;;;;;67.20;3.00;;;29.50;1.00;;;;;;5073712;28;20398;-84
2022/07/12 12:52:19;;;;;;;66.37;2.53;;;29.50;1.00;;;;;;5073673;28;20547;-84
2022/07/12 12:54:45;;;;;;;66.90;2.60;;;29.00;1.00;;;;;;5073877;28;20405;-85